sensor_id;sensor_type;location;lat;lon;timestamp;temperature;humidity
10123;DHT22;5101;49.038;8.710;2022-09-09T00:00:41;16.20;99.90
10123;DHT22;5101;49.038;8.710;2022-09-09T00:03:21;16.30;99.90
10123;DHT22;5101;49.038;8.710;2022-09-09T00:05:59;16.20;99.90
10123;DHT22;5101;49.038;8.710;2022-09-09T00:11:41;16.20;99.90
10123;DHT22;5101;49.038;8.710;2022-09-09T00:14:23;16.20;99.90
10123;DHT22;5101;49.038;8.710;2022-09-09T00:16:56;16.20;99.90
10123;DHT22;5101;49.038;8.710;2022-09-09T00:22:16;16.30;99.90
10123;DHT22;5101;49.038;8.710;2022-09-09T00:27:21;16.20;99.90
10123;DHT22;5101;49.038;8.710;2022-09-09T00:29:53;16.20;99.90
10123;DHT22;5101;49.038;8.710;2022-09-09T00:32:21;16.20;99.90
10123;DHT22;5101;49.038;8.710;2022-09-09T00:34:56;16.20;99.90
10123;DHT22;5101;49.038;8.710;2022-09-09T00:37:24;16.30;99.90
10123;DHT22;5101;49.038;8.710;2022-09-09T00:39:56;16.30;99.90
10123;DHT22;5101;49.038;8.710;2022-09-09T00:42:26;16.40;99.90
10123;DHT22;5101;49.038;8.710;2022-09-09T00:45:02;16.40;99.90
10123;DHT22;5101;49.038;8.710;2022-09-09T00:47:46;16.40;99.90
10123;DHT22;5101;49.038;8.710;2022-09-09T00:58:15;16.50;99.90
10123;DHT22;5101;49.038;8.710;2022-09-09T01:00:47;16.50;99.90
10123;DHT22;5101;49.038;8.710;2022-09-09T01:11:57;16.60;99.90
10123;DHT22;5101;49.038;8.710;2022-09-09T01:17:33;16.60;99.90
10123;DHT22;5101;49.038;8.710;2022-09-09T01:20:14;16.60;99.90
10123;DHT22;5101;49.038;8.710;2022-09-09T01:22:57;16.60;99.90
10123;DHT22;5101;49.038;8.710;2022-09-09T01:28:16;16.70;99.90
10123;DHT22;5101;49.038;8.710;2022-09-09T01:30:44;16.60;99.90
10123;DHT22;5101;49.038;8.710;2022-09-09T01:33:14;16.60;99.90
10123;DHT22;5101;49.038;8.710;2022-09-09T01:36:04;16.70;99.90
10123;DHT22;5101;49.038;8.710;2022-09-09T01:38:32;16.60;99.90
10123;DHT22;5101;49.038;8.710;2022-09-09T01:40:58;16.60;99.90
10123;DHT22;5101;49.038;8.710;2022-09-09T01:43:25;16.60;99.90
10123;DHT22;5101;49.038;8.710;2022-09-09T01:45:55;16.60;99.90
10123;DHT22;5101;49.038;8.710;2022-09-09T01:48:22;16.60;99.90
10123;DHT22;5101;49.038;8.710;2022-09-09T01:50:49;16.60;99.90
10123;DHT22;5101;49.038;8.710;2022-09-09T01:53:16;16.60;99.90
10123;DHT22;5101;49.038;8.710;2022-09-09T01:55:47;16.70;99.90
10123;DHT22;5101;49.038;8.710;2022-09-09T01:58:34;16.80;99.90
10123;DHT22;5101;49.038;8.710;2022-09-09T02:01:11;16.90;99.90
10123;DHT22;5101;49.038;8.710;2022-09-09T02:03:38;16.90;99.90
10123;DHT22;5101;49.038;8.710;2022-09-09T02:06:35;17.00;99.90
10123;DHT22;5101;49.038;8.710;2022-09-09T02:09:05;17.00;99.90
10123;DHT22;5101;49.038;8.710;2022-09-09T02:11:31;17.00;99.90
10123;DHT22;5101;49.038;8.710;2022-09-09T02:14:01;17.10;99.90
10123;DHT22;5101;49.038;8.710;2022-09-09T02:16:30;17.10;99.90
10123;DHT22;5101;49.038;8.710;2022-09-09T02:19:06;17.10;99.90
10123;DHT22;5101;49.038;8.710;2022-09-09T02:21:34;17.10;99.90
10123;DHT22;5101;49.038;8.710;2022-09-09T02:24:03;17.10;99.90
10123;DHT22;5101;49.038;8.710;2022-09-09T02:26:31;17.10;99.90
10123;DHT22;5101;49.038;8.710;2022-09-09T02:29:00;17.10;99.90
10123;DHT22;5101;49.038;8.710;2022-09-09T02:31:27;17.10;99.90
10123;DHT22;5101;49.038;8.710;2022-09-09T02:33:59;17.10;99.90
10123;DHT22;5101;49.038;8.710;2022-09-09T02:36:28;17.10;99.90
10123;DHT22;5101;49.038;8.710;2022-09-09T02:38:56;17.10;99.90
10123;DHT22;5101;49.038;8.710;2022-09-09T02:41:28;17.10;99.90
10123;DHT22;5101;49.038;8.710;2022-09-09T02:43:55;17.10;99.90
10123;DHT22;5101;49.038;8.710;2022-09-09T02:46:36;17.10;99.90
10123;DHT22;5101;49.038;8.710;2022-09-09T02:49:32;17.10;99.90
10123;DHT22;5101;49.038;8.710;2022-09-09T02:52:08;17.10;99.90
10123;DHT22;5101;49.038;8.710;2022-09-09T02:54:39;17.10;99.90
10123;DHT22;5101;49.038;8.710;2022-09-09T02:57:12;17.20;99.90
10123;DHT22;5101;49.038;8.710;2022-09-09T02:59:39;17.20;99.90
10123;DHT22;5101;49.038;8.710;2022-09-09T03:02:05;17.20;99.90
10123;DHT22;5101;49.038;8.710;2022-09-09T03:04:31;17.20;99.90
10123;DHT22;5101;49.038;8.710;2022-09-09T03:06:58;17.20;99.90
10123;DHT22;5101;49.038;8.710;2022-09-09T03:09:24;17.20;99.90
10123;DHT22;5101;49.038;8.710;2022-09-09T03:11:49;17.20;99.90
10123;DHT22;5101;49.038;8.710;2022-09-09T03:14:15;17.20;99.90
10123;DHT22;5101;49.038;8.710;2022-09-09T03:16:41;17.20;99.90
10123;DHT22;5101;49.038;8.710;2022-09-09T03:19:08;17.20;99.90
10123;DHT22;5101;49.038;8.710;2022-09-09T03:21:34;17.20;99.90
10123;DHT22;5101;49.038;8.710;2022-09-09T03:24:01;17.20;99.90
10123;DHT22;5101;49.038;8.710;2022-09-09T03:26:28;17.20;99.90
10123;DHT22;5101;49.038;8.710;2022-09-09T03:28:54;17.20;99.90
10123;DHT22;5101;49.038;8.710;2022-09-09T03:31:19;17.10;99.90
10123;DHT22;5101;49.038;8.710;2022-09-09T03:33:45;17.10;99.90
10123;DHT22;5101;49.038;8.710;2022-09-09T03:36:10;17.10;99.90
10123;DHT22;5101;49.038;8.710;2022-09-09T03:38:36;17.10;99.90
10123;DHT22;5101;49.038;8.710;2022-09-09T03:41:02;17.10;99.90
10123;DHT22;5101;49.038;8.710;2022-09-09T03:43:28;17.10;99.90
10123;DHT22;5101;49.038;8.710;2022-09-09T03:45:55;17.10;99.90
10123;DHT22;5101;49.038;8.710;2022-09-09T03:48:24;17.10;99.90
10123;DHT22;5101;49.038;8.710;2022-09-09T03:50:52;17.10;99.90
10123;DHT22;5101;49.038;8.710;2022-09-09T03:53:20;17.10;99.90
10123;DHT22;5101;49.038;8.710;2022-09-09T03:55:51;17.10;99.90
10123;DHT22;5101;49.038;8.710;2022-09-09T03:58:20;17.10;99.90
10123;DHT22;5101;49.038;8.710;2022-09-09T04:01:00;17.10;99.90
10123;DHT22;5101;49.038;8.710;2022-09-09T04:03:27;17.00;99.90
10123;DHT22;5101;49.038;8.710;2022-09-09T04:05:53;17.00;99.90
10123;DHT22;5101;49.038;8.710;2022-09-09T04:08:20;17.00;99.90
10123;DHT22;5101;49.038;8.710;2022-09-09T04:10:50;17.00;99.90
10123;DHT22;5101;49.038;8.710;2022-09-09T04:13:16;17.00;99.90
10123;DHT22;5101;49.038;8.710;2022-09-09T04:15:52;17.00;99.90
10123;DHT22;5101;49.038;8.710;2022-09-09T04:18:19;17.00;99.90
10123;DHT22;5101;49.038;8.710;2022-09-09T04:20:48;16.90;99.90
10123;DHT22;5101;49.038;8.710;2022-09-09T04:23:15;16.90;99.90
10123;DHT22;5101;49.038;8.710;2022-09-09T04:25:44;16.90;99.90
10123;DHT22;5101;49.038;8.710;2022-09-09T04:28:10;16.90;99.90
10123;DHT22;5101;49.038;8.710;2022-09-09T04:30:36;16.90;99.90
10123;DHT22;5101;49.038;8.710;2022-09-09T04:33:01;16.80;99.90
10123;DHT22;5101;49.038;8.710;2022-09-09T04:35:27;16.80;99.90
10123;DHT22;5101;49.038;8.710;2022-09-09T04:37:52;16.80;99.90
10123;DHT22;5101;49.038;8.710;2022-09-09T04:40:18;16.70;99.90
10123;DHT22;5101;49.038;8.710;2022-09-09T04:42:43;16.70;99.90
10123;DHT22;5101;49.038;8.710;2022-09-09T04:45:09;16.70;99.90
10123;DHT22;5101;49.038;8.710;2022-09-09T04:47:36;16.70;99.90
10123;DHT22;5101;49.038;8.710;2022-09-09T04:50:02;16.70;99.90
10123;DHT22;5101;49.038;8.710;2022-09-09T04:52:27;16.70;99.90
10123;DHT22;5101;49.038;8.710;2022-09-09T04:54:53;16.80;99.90
10123;DHT22;5101;49.038;8.710;2022-09-09T04:57:19;16.80;99.90
10123;DHT22;5101;49.038;8.710;2022-09-09T04:59:44;16.70;99.90
10123;DHT22;5101;49.038;8.710;2022-09-09T05:02:11;16.70;99.90
10123;DHT22;5101;49.038;8.710;2022-09-09T05:04:36;16.70;99.90
10123;DHT22;5101;49.038;8.710;2022-09-09T05:07:02;16.70;99.90
10123;DHT22;5101;49.038;8.710;2022-09-09T05:09:27;16.70;99.90
10123;DHT22;5101;49.038;8.710;2022-09-09T05:11:54;16.70;99.90
10123;DHT22;5101;49.038;8.710;2022-09-09T05:14:20;16.70;99.90
10123;DHT22;5101;49.038;8.710;2022-09-09T05:16:45;16.70;99.90
10123;DHT22;5101;49.038;8.710;2022-09-09T05:19:12;16.70;99.90
10123;DHT22;5101;49.038;8.710;2022-09-09T05:21:38;16.70;99.90
10123;DHT22;5101;49.038;8.710;2022-09-09T05:24:03;16.70;99.90
10123;DHT22;5101;49.038;8.710;2022-09-09T05:26:29;16.70;99.90
10123;DHT22;5101;49.038;8.710;2022-09-09T05:28:55;16.70;99.90
10123;DHT22;5101;49.038;8.710;2022-09-09T05:31:21;16.70;99.90
10123;DHT22;5101;49.038;8.710;2022-09-09T05:33:47;16.70;99.90
10123;DHT22;5101;49.038;8.710;2022-09-09T05:36:19;16.70;99.90
10123;DHT22;5101;49.038;8.710;2022-09-09T05:38:45;16.70;99.90
10123;DHT22;5101;49.038;8.710;2022-09-09T05:41:12;16.80;99.90
10123;DHT22;5101;49.038;8.710;2022-09-09T05:43:41;16.80;99.90
10123;DHT22;5101;49.038;8.710;2022-09-09T05:46:12;16.80;99.90
10123;DHT22;5101;49.038;8.710;2022-09-09T05:48:39;16.80;99.90
10123;DHT22;5101;49.038;8.710;2022-09-09T05:51:07;16.90;99.90
10123;DHT22;5101;49.038;8.710;2022-09-09T05:53:34;16.90;99.90
10123;DHT22;5101;49.038;8.710;2022-09-09T05:56:03;16.90;99.90
10123;DHT22;5101;49.038;8.710;2022-09-09T05:58:31;17.00;99.90
10123;DHT22;5101;49.038;8.710;2022-09-09T06:01:04;17.00;99.90
10123;DHT22;5101;49.038;8.710;2022-09-09T06:03:30;17.00;99.90
10123;DHT22;5101;49.038;8.710;2022-09-09T06:06:04;17.00;99.90
10123;DHT22;5101;49.038;8.710;2022-09-09T06:08:37;17.00;99.90
10123;DHT22;5101;49.038;8.710;2022-09-09T06:11:15;17.00;99.90
10123;DHT22;5101;49.038;8.710;2022-09-09T06:13:40;16.90;99.90
10123;DHT22;5101;49.038;8.710;2022-09-09T06:16:09;17.00;99.90
10123;DHT22;5101;49.038;8.710;2022-09-09T06:18:36;17.00;99.90
10123;DHT22;5101;49.038;8.710;2022-09-09T06:21:04;17.10;99.90
10123;DHT22;5101;49.038;8.710;2022-09-09T06:23:31;17.10;99.90
10123;DHT22;5101;49.038;8.710;2022-09-09T06:26:05;17.20;99.90
10123;DHT22;5101;49.038;8.710;2022-09-09T06:28:31;17.20;99.90
10123;DHT22;5101;49.038;8.710;2022-09-09T06:31:01;17.30;99.90
10123;DHT22;5101;49.038;8.710;2022-09-09T06:33:31;17.20;99.90
10123;DHT22;5101;49.038;8.710;2022-09-09T06:35:57;17.30;99.90
10123;DHT22;5101;49.038;8.710;2022-09-09T06:38:23;17.40;99.90
10123;DHT22;5101;49.038;8.710;2022-09-09T06:40:57;17.50;99.90
10123;DHT22;5101;49.038;8.710;2022-09-09T06:43:24;17.50;99.90
10123;DHT22;5101;49.038;8.710;2022-09-09T06:46:00;17.60;99.90
10123;DHT22;5101;49.038;8.710;2022-09-09T06:48:27;17.60;99.90
10123;DHT22;5101;49.038;8.710;2022-09-09T06:51:16;17.70;99.90
10123;DHT22;5101;49.038;8.710;2022-09-09T06:53:43;17.90;99.90
10123;DHT22;5101;49.038;8.710;2022-09-09T06:58:41;18.00;99.90
10123;DHT22;5101;49.038;8.710;2022-09-09T07:01:12;18.10;99.90
10123;DHT22;5101;49.038;8.710;2022-09-09T07:03:39;18.20;99.90
10123;DHT22;5101;49.038;8.710;2022-09-09T07:06:05;18.30;99.90
10123;DHT22;5101;49.038;8.710;2022-09-09T07:08:33;18.40;99.90
10123;DHT22;5101;49.038;8.710;2022-09-09T07:11:02;18.40;99.90
10123;DHT22;5101;49.038;8.710;2022-09-09T07:13:29;18.50;99.90
10123;DHT22;5101;49.038;8.710;2022-09-09T07:15:55;18.50;99.90
10123;DHT22;5101;49.038;8.710;2022-09-09T07:18:20;18.60;99.90
10123;DHT22;5101;49.038;8.710;2022-09-09T07:20:53;18.70;99.90
10123;DHT22;5101;49.038;8.710;2022-09-09T07:23:20;18.90;99.90
10123;DHT22;5101;49.038;8.710;2022-09-09T07:25:45;19.20;99.90
10123;DHT22;5101;49.038;8.710;2022-09-09T07:28:11;19.30;99.90
10123;DHT22;5101;49.038;8.710;2022-09-09T07:30:37;19.60;99.90
10123;DHT22;5101;49.038;8.710;2022-09-09T07:33:02;19.90;99.90
10123;DHT22;5101;49.038;8.710;2022-09-09T07:35:28;20.40;99.90
10123;DHT22;5101;49.038;8.710;2022-09-09T07:37:54;20.90;99.70
10123;DHT22;5101;49.038;8.710;2022-09-09T07:40:20;21.50;97.70
10123;DHT22;5101;49.038;8.710;2022-09-09T07:42:47;21.80;96.00
10123;DHT22;5101;49.038;8.710;2022-09-09T07:45:13;22.10;95.00
10123;DHT22;5101;49.038;8.710;2022-09-09T07:47:39;22.30;93.90
10123;DHT22;5101;49.038;8.710;2022-09-09T07:50:08;22.40;92.50
10123;DHT22;5101;49.038;8.710;2022-09-09T07:52:35;22.20;91.70
10123;DHT22;5101;49.038;8.710;2022-09-09T07:55:00;22.20;91.40
10123;DHT22;5101;49.038;8.710;2022-09-09T07:57:28;22.00;91.50
10123;DHT22;5101;49.038;8.710;2022-09-09T07:59:56;22.00;91.40
10123;DHT22;5101;49.038;8.710;2022-09-09T08:02:22;22.10;91.30
10123;DHT22;5101;49.038;8.710;2022-09-09T08:04:48;22.40;91.10
10123;DHT22;5101;49.038;8.710;2022-09-09T08:07:14;22.90;90.50
10123;DHT22;5101;49.038;8.710;2022-09-09T08:09:39;23.40;88.90
10123;DHT22;5101;49.038;8.710;2022-09-09T08:12:05;24.00;86.80
10123;DHT22;5101;49.038;8.710;2022-09-09T08:14:34;24.70;84.90
10123;DHT22;5101;49.038;8.710;2022-09-09T08:16:59;25.30;82.80
10123;DHT22;5101;49.038;8.710;2022-09-09T08:19:25;25.80;80.10
10123;DHT22;5101;49.038;8.710;2022-09-09T08:21:51;26.40;76.40
10123;DHT22;5101;49.038;8.710;2022-09-09T08:24:17;26.90;73.70
10123;DHT22;5101;49.038;8.710;2022-09-09T08:26:47;27.40;71.00
10123;DHT22;5101;49.038;8.710;2022-09-09T08:29:14;27.60;68.10
10123;DHT22;5101;49.038;8.710;2022-09-09T08:31:52;27.90;65.20
10123;DHT22;5101;49.038;8.710;2022-09-09T08:34:20;28.10;62.30
10123;DHT22;5101;49.038;8.710;2022-09-09T08:36:46;28.50;60.60
10123;DHT22;5101;49.038;8.710;2022-09-09T08:39:17;28.80;58.30
10123;DHT22;5101;49.038;8.710;2022-09-09T08:49:48;29.90;48.20
10123;DHT22;5101;49.038;8.710;2022-09-09T08:53:11;30.30;47.90
10123;DHT22;5101;49.038;8.710;2022-09-09T08:55:48;30.40;47.10
10123;DHT22;5101;49.038;8.710;2022-09-09T08:58:34;30.30;46.00
10123;DHT22;5101;49.038;8.710;2022-09-09T09:01:43;29.80;48.00
10123;DHT22;5101;49.038;8.710;2022-09-09T09:10:12;28.50;57.70
10123;DHT22;5101;49.038;8.710;2022-09-09T09:12:42;28.20;58.80
10123;DHT22;5101;49.038;8.710;2022-09-09T09:15:25;27.90;59.90
10123;DHT22;5101;49.038;8.710;2022-09-09T09:17:51;27.90;60.80
10123;DHT22;5101;49.038;8.710;2022-09-09T09:20:21;27.80;60.00
10123;DHT22;5101;49.038;8.710;2022-09-09T09:22:54;27.80;61.00
10123;DHT22;5101;49.038;8.710;2022-09-09T09:25:34;27.60;62.00
10123;DHT22;5101;49.038;8.710;2022-09-09T09:28:16;27.30;63.30
10123;DHT22;5101;49.038;8.710;2022-09-09T09:30:47;27.30;63.30
10123;DHT22;5101;49.038;8.710;2022-09-09T09:33:26;27.20;64.40
10123;DHT22;5101;49.038;8.710;2022-09-09T09:35:53;26.90;65.00
10123;DHT22;5101;49.038;8.710;2022-09-09T09:38:25;26.80;64.90
10123;DHT22;5101;49.038;8.710;2022-09-09T09:40:56;26.70;65.00
10123;DHT22;5101;49.038;8.710;2022-09-09T09:43:32;26.60;63.90
10123;DHT22;5101;49.038;8.710;2022-09-09T09:45:58;26.40;64.80
10123;DHT22;5101;49.038;8.710;2022-09-09T09:48:25;26.30;65.30
10123;DHT22;5101;49.038;8.710;2022-09-09T09:51:01;26.30;64.80
10123;DHT22;5101;49.038;8.710;2022-09-09T09:53:32;26.40;64.50
10123;DHT22;5101;49.038;8.710;2022-09-09T09:58:32;26.30;65.20
10123;DHT22;5101;49.038;8.710;2022-09-09T10:01:00;26.10;64.90
10123;DHT22;5101;49.038;8.710;2022-09-09T10:03:33;26.00;64.60
10123;DHT22;5101;49.038;8.710;2022-09-09T10:06:04;25.90;65.00
10123;DHT22;5101;49.038;8.710;2022-09-09T10:08:34;25.90;65.10
10123;DHT22;5101;49.038;8.710;2022-09-09T10:14:13;25.70;66.00
10123;DHT22;5101;49.038;8.710;2022-09-09T10:16:59;25.70;65.30
10123;DHT22;5101;49.038;8.710;2022-09-09T10:19:37;25.90;64.70
10123;DHT22;5101;49.038;8.710;2022-09-09T10:22:28;26.00;64.00
10123;DHT22;5101;49.038;8.710;2022-09-09T10:30:19;26.70;60.90
10123;DHT22;5101;49.038;8.710;2022-09-09T10:33:05;26.80;59.40
10123;DHT22;5101;49.038;8.710;2022-09-09T10:35:44;26.80;58.10
10123;DHT22;5101;49.038;8.710;2022-09-09T10:48:56;26.90;55.70
10123;DHT22;5101;49.038;8.710;2022-09-09T10:54:40;26.70;54.30
10123;DHT22;5101;49.038;8.710;2022-09-09T10:57:20;26.40;53.70
10123;DHT22;5101;49.038;8.710;2022-09-09T10:59:53;26.30;53.90
10123;DHT22;5101;49.038;8.710;2022-09-09T11:02:33;26.20;54.70
10123;DHT22;5101;49.038;8.710;2022-09-09T11:08:00;26.20;55.50
10123;DHT22;5101;49.038;8.710;2022-09-09T11:10:39;25.90;57.10
10123;DHT22;5101;49.038;8.710;2022-09-09T11:13:26;25.90;58.80
10123;DHT22;5101;49.038;8.710;2022-09-09T11:16:04;25.90;59.50
10123;DHT22;5101;49.038;8.710;2022-09-09T11:18:39;26.00;57.80
10123;DHT22;5101;49.038;8.710;2022-09-09T11:21:21;26.10;57.20
10123;DHT22;5101;49.038;8.710;2022-09-09T11:23:55;26.20;54.30
10123;DHT22;5101;49.038;8.710;2022-09-09T11:26:36;26.20;53.20
10123;DHT22;5101;49.038;8.710;2022-09-09T11:35:02;25.80;53.00
10123;DHT22;5101;49.038;8.710;2022-09-09T11:40:41;25.30;55.90
10123;DHT22;5101;49.038;8.710;2022-09-09T11:43:12;25.30;56.30
10123;DHT22;5101;49.038;8.710;2022-09-09T11:45:40;25.30;56.30
10123;DHT22;5101;49.038;8.710;2022-09-09T11:48:23;25.40;56.70
10123;DHT22;5101;49.038;8.710;2022-09-09T11:51:12;25.40;55.90
10123;DHT22;5101;49.038;8.710;2022-09-09T11:56:54;25.20;55.00
10123;DHT22;5101;49.038;8.710;2022-09-09T11:59:28;25.30;55.60
10123;DHT22;5101;49.038;8.710;2022-09-09T12:01:58;25.40;55.60
10123;DHT22;5101;49.038;8.710;2022-09-09T12:07:00;25.80;54.40
10123;DHT22;5101;49.038;8.710;2022-09-09T12:12:37;25.90;52.10
10123;DHT22;5101;49.038;8.710;2022-09-09T12:17:47;26.00;50.50
10123;DHT22;5101;49.038;8.710;2022-09-09T12:20:14;26.00;49.10
10123;DHT22;5101;49.038;8.710;2022-09-09T12:31:54;25.80;49.60
10123;DHT22;5101;49.038;8.710;2022-09-09T12:34:44;25.80;50.70
10123;DHT22;5101;49.038;8.710;2022-09-09T12:37:34;25.90;51.50
10123;DHT22;5101;49.038;8.710;2022-09-09T12:40:04;26.00;50.20
10123;DHT22;5101;49.038;8.710;2022-09-09T12:42:30;26.00;50.50
10123;DHT22;5101;49.038;8.710;2022-09-09T12:45:00;26.10;50.90
10123;DHT22;5101;49.038;8.710;2022-09-09T12:47:39;26.10;51.00
10123;DHT22;5101;49.038;8.710;2022-09-09T12:50:17;26.00;50.80
10123;DHT22;5101;49.038;8.710;2022-09-09T12:52:44;26.10;51.40
10123;DHT22;5101;49.038;8.710;2022-09-09T12:55:17;26.20;51.10
10123;DHT22;5101;49.038;8.710;2022-09-09T12:57:43;26.20;50.30
10123;DHT22;5101;49.038;8.710;2022-09-09T13:00:15;25.90;50.70
10123;DHT22;5101;49.038;8.710;2022-09-09T13:02:53;25.90;50.30
10123;DHT22;5101;49.038;8.710;2022-09-09T13:05:24;25.90;50.80
10123;DHT22;5101;49.038;8.710;2022-09-09T13:07:51;25.70;50.40
10123;DHT22;5101;49.038;8.710;2022-09-09T13:10:28;25.40;50.00
10123;DHT22;5101;49.038;8.710;2022-09-09T13:12:54;25.20;50.10
10123;DHT22;5101;49.038;8.710;2022-09-09T13:15:22;25.00;50.40
10123;DHT22;5101;49.038;8.710;2022-09-09T13:17:51;24.70;50.90
10123;DHT22;5101;49.038;8.710;2022-09-09T13:20:19;24.60;51.60
10123;DHT22;5101;49.038;8.710;2022-09-09T13:22:46;24.50;52.40
10123;DHT22;5101;49.038;8.710;2022-09-09T13:27:41;24.10;49.20
10123;DHT22;5101;49.038;8.710;2022-09-09T13:30:28;24.00;48.90
10123;DHT22;5101;49.038;8.710;2022-09-09T13:33:20;23.70;50.30
10123;DHT22;5101;49.038;8.710;2022-09-09T13:35:55;23.70;52.20
10123;DHT22;5101;49.038;8.710;2022-09-09T13:38:21;23.70;52.90
10123;DHT22;5101;49.038;8.710;2022-09-09T13:41:18;23.80;52.80
10123;DHT22;5101;49.038;8.710;2022-09-09T13:43:46;23.80;53.00
10123;DHT22;5101;49.038;8.710;2022-09-09T13:46:36;23.80;53.40
10123;DHT22;5101;49.038;8.710;2022-09-09T13:51:41;23.80;55.80
10123;DHT22;5101;49.038;8.710;2022-09-09T13:54:12;23.80;56.80
10123;DHT22;5101;49.038;8.710;2022-09-09T13:56:39;23.70;57.70
10123;DHT22;5101;49.038;8.710;2022-09-09T13:59:09;23.70;58.40
10123;DHT22;5101;49.038;8.710;2022-09-09T14:01:35;23.70;60.20
10123;DHT22;5101;49.038;8.710;2022-09-09T14:04:03;23.60;61.90
10123;DHT22;5101;49.038;8.710;2022-09-09T14:06:29;23.60;62.70
10123;DHT22;5101;49.038;8.710;2022-09-09T14:08:55;23.50;63.00
10123;DHT22;5101;49.038;8.710;2022-09-09T14:11:21;23.50;63.80
10123;DHT22;5101;49.038;8.710;2022-09-09T14:13:47;23.50;64.50
10123;DHT22;5101;49.038;8.710;2022-09-09T14:16:13;23.50;64.60
10123;DHT22;5101;49.038;8.710;2022-09-09T14:18:38;23.60;64.60
10123;DHT22;5101;49.038;8.710;2022-09-09T14:21:04;23.50;64.60
10123;DHT22;5101;49.038;8.710;2022-09-09T14:23:30;23.40;64.30
10123;DHT22;5101;49.038;8.710;2022-09-09T14:25:56;23.40;64.60
10123;DHT22;5101;49.038;8.710;2022-09-09T14:28:21;23.30;65.10
10123;DHT22;5101;49.038;8.710;2022-09-09T14:30:47;23.40;66.30
10123;DHT22;5101;49.038;8.710;2022-09-09T14:33:15;23.40;67.10
10123;DHT22;5101;49.038;8.710;2022-09-09T14:35:41;23.40;67.30
10123;DHT22;5101;49.038;8.710;2022-09-09T14:38:08;23.40;67.30
10123;DHT22;5101;49.038;8.710;2022-09-09T14:40:37;23.40;67.30
10123;DHT22;5101;49.038;8.710;2022-09-09T14:43:04;23.50;67.70
10123;DHT22;5101;49.038;8.710;2022-09-09T14:45:29;23.50;66.90
10123;DHT22;5101;49.038;8.710;2022-09-09T14:47:55;23.60;65.90
10123;DHT22;5101;49.038;8.710;2022-09-09T14:50:22;23.60;65.10
10123;DHT22;5101;49.038;8.710;2022-09-09T14:52:48;23.70;65.90
10123;DHT22;5101;49.038;8.710;2022-09-09T14:55:14;23.60;66.30
10123;DHT22;5101;49.038;8.710;2022-09-09T14:57:40;23.70;67.00
10123;DHT22;5101;49.038;8.710;2022-09-09T15:00:07;23.60;67.60
10123;DHT22;5101;49.038;8.710;2022-09-09T15:02:33;23.70;68.00
10123;DHT22;5101;49.038;8.710;2022-09-09T15:04:59;23.60;68.10
10123;DHT22;5101;49.038;8.710;2022-09-09T15:07:25;23.50;69.30
10123;DHT22;5101;49.038;8.710;2022-09-09T15:09:52;23.50;70.10
10123;DHT22;5101;49.038;8.710;2022-09-09T15:12:18;23.50;70.80
10123;DHT22;5101;49.038;8.710;2022-09-09T15:14:44;23.30;71.50
10123;DHT22;5101;49.038;8.710;2022-09-09T15:17:11;23.30;72.20
10123;DHT22;5101;49.038;8.710;2022-09-09T15:19:37;23.30;72.50
10123;DHT22;5101;49.038;8.710;2022-09-09T15:22:03;23.30;73.00
10123;DHT22;5101;49.038;8.710;2022-09-09T15:24:31;23.20;72.90
10123;DHT22;5101;49.038;8.710;2022-09-09T15:26:56;23.00;72.50
10123;DHT22;5101;49.038;8.710;2022-09-09T15:29:23;22.80;71.80
10123;DHT22;5101;49.038;8.710;2022-09-09T15:31:48;22.70;72.60
10123;DHT22;5101;49.038;8.710;2022-09-09T15:34:14;22.50;74.10
10123;DHT22;5101;49.038;8.710;2022-09-09T15:36:41;22.40;76.40
10123;DHT22;5101;49.038;8.710;2022-09-09T15:39:09;22.30;77.30
10123;DHT22;5101;49.038;8.710;2022-09-09T15:41:38;22.20;78.30
10123;DHT22;5101;49.038;8.710;2022-09-09T15:44:04;22.10;78.90
10123;DHT22;5101;49.038;8.710;2022-09-09T15:46:36;21.80;79.60
10123;DHT22;5101;49.038;8.710;2022-09-09T15:51:40;21.50;80.80
10123;DHT22;5101;49.038;8.710;2022-09-09T15:54:07;21.40;80.80
10123;DHT22;5101;49.038;8.710;2022-09-09T15:56:33;21.40;81.00
10123;DHT22;5101;49.038;8.710;2022-09-09T15:59:01;21.30;80.70
10123;DHT22;5101;49.038;8.710;2022-09-09T16:01:29;21.30;80.10
10123;DHT22;5101;49.038;8.710;2022-09-09T16:03:56;21.20;79.70
10123;DHT22;5101;49.038;8.710;2022-09-09T16:06:23;21.10;79.40
10123;DHT22;5101;49.038;8.710;2022-09-09T16:08:51;21.00;79.60
10123;DHT22;5101;49.038;8.710;2022-09-09T16:11:23;21.00;80.00
10123;DHT22;5101;49.038;8.710;2022-09-09T16:13:50;20.90;80.50
10123;DHT22;5101;49.038;8.710;2022-09-09T16:16:17;20.80;80.90
10123;DHT22;5101;49.038;8.710;2022-09-09T16:18:48;20.80;81.60
10123;DHT22;5101;49.038;8.710;2022-09-09T16:21:19;20.90;82.50
10123;DHT22;5101;49.038;8.710;2022-09-09T16:23:45;20.90;83.20
10123;DHT22;5101;49.038;8.710;2022-09-09T16:26:13;20.90;83.20
10123;DHT22;5101;49.038;8.710;2022-09-09T16:28:39;20.80;83.00
10123;DHT22;5101;49.038;8.710;2022-09-09T16:31:18;20.90;83.00
10123;DHT22;5101;49.038;8.710;2022-09-09T16:33:44;21.00;83.30
10123;DHT22;5101;49.038;8.710;2022-09-09T16:36:13;21.00;82.70
10123;DHT22;5101;49.038;8.710;2022-09-09T16:38:39;21.00;82.30
10123;DHT22;5101;49.038;8.710;2022-09-09T16:41:06;21.00;82.30
10123;DHT22;5101;49.038;8.710;2022-09-09T16:43:33;21.10;82.50
10123;DHT22;5101;49.038;8.710;2022-09-09T16:46:00;21.00;82.70
10123;DHT22;5101;49.038;8.710;2022-09-09T16:48:35;21.00;82.30
10123;DHT22;5101;49.038;8.710;2022-09-09T16:51:09;21.00;81.90
10123;DHT22;5101;49.038;8.710;2022-09-09T16:53:36;21.00;81.50
10123;DHT22;5101;49.038;8.710;2022-09-09T16:56:09;20.90;81.60
10123;DHT22;5101;49.038;8.710;2022-09-09T16:58:35;20.90;82.00
10123;DHT22;5101;49.038;8.710;2022-09-09T17:01:03;20.90;81.80
10123;DHT22;5101;49.038;8.710;2022-09-09T17:03:29;20.80;81.80
10123;DHT22;5101;49.038;8.710;2022-09-09T17:05:55;20.80;81.80
10123;DHT22;5101;49.038;8.710;2022-09-09T17:08:20;20.70;81.90
10123;DHT22;5101;49.038;8.710;2022-09-09T17:10:46;20.70;82.40
10123;DHT22;5101;49.038;8.710;2022-09-09T17:13:12;20.60;81.90
10123;DHT22;5101;49.038;8.710;2022-09-09T17:15:42;20.50;81.90
10123;DHT22;5101;49.038;8.710;2022-09-09T17:18:09;20.40;82.00
10123;DHT22;5101;49.038;8.710;2022-09-09T17:20:39;20.30;82.10
10123;DHT22;5101;49.038;8.710;2022-09-09T17:23:07;20.20;82.60
10123;DHT22;5101;49.038;8.710;2022-09-09T17:25:32;20.20;83.00
10123;DHT22;5101;49.038;8.710;2022-09-09T17:27:59;20.10;83.30
10123;DHT22;5101;49.038;8.710;2022-09-09T17:30:25;20.10;83.90
10123;DHT22;5101;49.038;8.710;2022-09-09T17:32:51;20.00;84.50
10123;DHT22;5101;49.038;8.710;2022-09-09T17:35:16;20.00;85.00
10123;DHT22;5101;49.038;8.710;2022-09-09T17:37:43;20.00;85.40
10123;DHT22;5101;49.038;8.710;2022-09-09T17:40:08;20.00;85.40
10123;DHT22;5101;49.038;8.710;2022-09-09T17:42:34;19.90;85.60
10123;DHT22;5101;49.038;8.710;2022-09-09T17:45:00;20.00;86.10
10123;DHT22;5101;49.038;8.710;2022-09-09T17:47:26;20.00;86.50
10123;DHT22;5101;49.038;8.710;2022-09-09T17:49:53;20.00;87.00
10123;DHT22;5101;49.038;8.710;2022-09-09T17:52:19;20.00;87.50
10123;DHT22;5101;49.038;8.710;2022-09-09T17:54:44;19.90;87.90